createdAt,value
2022-08-22T00:00:16.194Z,19.05
2022-08-22T00:03:10.646Z,19.42
2022-08-22T00:03:36.016Z,19.00
2022-08-22T00:06:26.375Z,18.93
2022-08-22T00:09:45.876Z,18.93
2022-08-22T00:12:43.086Z,18.88
2022-08-22T00:15:43.417Z,18.88
2022-08-22T00:18:31.735Z,18.86
2022-08-22T00:21:42.317Z,18.83
2022-08-22T00:24:47.860Z,18.82
2022-08-22T00:27:26.918Z,18.80
2022-08-22T00:30:09.143Z,18.77
2022-08-22T00:32:46.784Z,18.77
2022-08-22T00:35:41.639Z,18.75
2022-08-22T00:38:31.093Z,18.77
2022-08-22T00:41:16.592Z,18.78
2022-08-22T00:44:11.975Z,18.77
2022-08-22T00:47:00.746Z,18.74
2022-08-22T00:50:13.209Z,18.74
2022-08-22T00:53:04.211Z,18.71
2022-08-22T00:55:49.767Z,18.72
2022-08-22T00:59:23.468Z,18.73
2022-08-22T01:02:28.075Z,18.72
2022-08-22T01:05:24.024Z,18.74
2022-08-22T01:08:33.858Z,18.74
2022-08-22T01:11:22.147Z,18.76
2022-08-22T01:14:39.821Z,18.76
2022-08-22T01:17:44.371Z,18.72
2022-08-22T01:20:40.926Z,18.72
2022-08-22T01:23:58.628Z,18.73
2022-08-22T01:27:16.682Z,18.72
2022-08-22T01:30:20.563Z,18.74
2022-08-22T01:33:32.688Z,18.68
2022-08-22T01:36:08.081Z,18.61
2022-08-22T01:38:52.113Z,18.64
2022-08-22T01:41:51.103Z,18.64
2022-08-22T01:44:56.598Z,18.68
2022-08-22T01:47:56.168Z,18.67
2022-08-22T01:50:53.177Z,18.57
2022-08-22T01:53:38.871Z,18.59
2022-08-22T01:56:20.428Z,18.61
2022-08-22T01:59:11.338Z,18.59
2022-08-22T02:01:51.098Z,18.59
2022-08-22T02:05:02.800Z,18.59
2022-08-22T02:08:15.050Z,18.59
2022-08-22T02:10:57.300Z,18.54
2022-08-22T02:13:51.447Z,18.55
2022-08-22T02:16:33.673Z,18.57
2022-08-22T02:19:33.100Z,18.57
2022-08-22T02:22:55.446Z,18.54
2022-08-22T02:25:32.747Z,18.51
2022-08-22T02:28:15.717Z,18.54
2022-08-22T02:31:10.379Z,18.50
2022-08-22T02:33:46.622Z,18.48
2022-08-22T02:36:53.884Z,18.45
2022-08-22T02:40:05.025Z,18.40
2022-08-22T02:43:18.468Z,18.40
2022-08-22T02:46:21.859Z,18.39
2022-08-22T02:48:59.569Z,18.35
2022-08-22T02:51:32.673Z,18.33
2022-08-22T02:54:38.287Z,18.36
2022-08-22T02:57:14.529Z,18.38
2022-08-22T03:00:32.577Z,18.25
2022-08-22T03:03:03.948Z,18.30
2022-08-22T03:05:36.570Z,18.27
2022-08-22T03:08:36.133Z,18.27
2022-08-22T03:11:27.241Z,18.27
2022-08-22T03:13:54.427Z,18.30
2022-08-22T03:16:28.619Z,18.25
2022-08-22T03:19:27.794Z,18.25
2022-08-22T03:22:07.295Z,18.24
2022-08-22T03:25:03.943Z,18.22
2022-08-22T03:27:46.203Z,18.12
2022-08-22T03:30:30.868Z,18.03
2022-08-22T03:33:14.944Z,18.01
2022-08-22T03:35:42.243Z,17.98
2022-08-22T03:38:21.069Z,18.05
2022-08-22T03:41:13.087Z,18.12
2022-08-22T03:44:04.777Z,18.18
2022-08-22T03:47:26.575Z,18.17
2022-08-22T03:50:46.325Z,18.20
2022-08-22T03:53:36.179Z,18.20
2022-08-22T03:57:00.265Z,18.20
2022-08-22T03:59:43.931Z,18.14
2022-08-22T04:02:43.195Z,18.14
2022-08-22T04:05:44.233Z,18.09
2022-08-22T04:08:45.161Z,18.07
2022-08-22T04:11:31.742Z,18.12
2022-08-22T04:14:13.267Z,18.13
2022-08-22T04:17:11.015Z,18.12
2022-08-22T04:20:20.889Z,18.14
2022-08-22T04:23:15.023Z,18.16
2022-08-22T04:26:12.655Z,18.21
2022-08-22T04:28:58.989Z,18.18
2022-08-22T04:31:46.455Z,18.20
2022-08-22T04:34:34.188Z,18.16
2022-08-22T04:37:29.699Z,18.11
2022-08-22T04:40:15.336Z,18.14
2022-08-22T04:42:53.575Z,18.15
2022-08-22T04:45:34.663Z,18.14
2022-08-22T04:48:12.627Z,18.16
2022-08-22T04:50:53.262Z,18.14
2022-08-22T04:53:52.773Z,18.11
2022-08-22T04:57:04.902Z,18.10
2022-08-22T04:59:33.971Z,18.10
2022-08-22T05:02:07.150Z,18.03
2022-08-22T05:05:04.428Z,18.07
2022-08-22T05:07:39.798Z,18.06
2022-08-22T05:10:24.595Z,18.04
2022-08-22T05:13:09.776Z,18.07
2022-08-22T05:15:44.207Z,18.08
2022-08-22T05:18:29.576Z,18.06
2022-08-22T05:21:05.025Z,18.09
2022-08-22T05:23:52.395Z,18.07
2022-08-22T05:26:21.762Z,18.06
2022-08-22T05:29:08.163Z,18.00
2022-08-22T05:31:45.745Z,18.02
2022-08-22T05:34:23.928Z,18.01
2022-08-22T05:37:04.640Z,18.01
2022-08-22T05:39:40.467Z,18.03
2022-08-22T05:42:15.592Z,18.03
2022-08-22T05:44:42.851Z,18.03
2022-08-22T05:47:21.493Z,18.06
2022-08-22T05:50:07.163Z,18.11
2022-08-22T05:53:11.797Z,18.08
2022-08-22T05:55:53.807Z,18.15
2022-08-22T05:58:38.972Z,18.16
2022-08-22T06:01:27.764Z,18.20
2022-08-22T06:04:31.439Z,18.18
2022-08-22T06:07:17.679Z,18.17
2022-08-22T06:09:47.572Z,18.14
2022-08-22T06:12:22.614Z,18.11
2022-08-22T06:15:15.136Z,18.17
2022-08-22T06:17:59.889Z,18.23
2022-08-22T06:20:52.456Z,18.27
2022-08-22T06:23:41.188Z,18.33
2022-08-22T06:26:21.058Z,18.36
2022-08-22T06:28:55.760Z,18.40
2022-08-22T06:31:32.188Z,18.39
2022-08-22T06:34:28.678Z,18.43
2022-08-22T06:37:02.049Z,18.40
2022-08-22T06:39:34.781Z,18.39
2022-08-22T06:42:22.747Z,18.44
2022-08-22T06:45:12.244Z,18.46
2022-08-22T06:47:58.029Z,18.55
2022-08-22T06:50:58.668Z,18.59
2022-08-22T06:53:33.991Z,18.57
2022-08-22T06:56:06.065Z,18.66
2022-08-22T06:58:40.502Z,18.60
2022-08-22T07:01:26.388Z,18.67
2022-08-22T07:04:02.871Z,18.72
2022-08-22T07:06:36.150Z,18.74
2022-08-22T07:09:06.831Z,18.74
2022-08-22T07:11:39.904Z,18.71
2022-08-22T07:14:17.140Z,18.79
2022-08-22T07:17:01.916Z,18.85
2022-08-22T07:19:34.663Z,18.87
2022-08-22T07:22:25.070Z,18.95
2022-08-22T07:25:02.254Z,18.92
2022-08-22T07:27:38.441Z,19.02
2022-08-22T07:30:28.000Z,19.08
2022-08-22T07:33:26.449Z,19.10
2022-08-22T07:36:04.104Z,19.11
2022-08-22T07:38:45.166Z,19.11
2022-08-22T07:41:22.489Z,18.98
2022-08-22T07:44:06.033Z,19.05
2022-08-22T07:46:44.112Z,19.10
2022-08-22T07:49:24.666Z,19.20
2022-08-22T07:51:59.219Z,19.25
2022-08-22T07:54:47.175Z,19.23
2022-08-22T07:57:29.610Z,19.16
2022-08-22T08:00:01.059Z,19.24
2022-08-22T08:02:29.096Z,19.34
2022-08-22T08:05:00.476Z,19.41
2022-08-22T08:07:32.089Z,19.46
2022-08-22T08:10:12.785Z,19.53
2022-08-22T08:13:01.982Z,19.39
2022-08-22T08:15:34.629Z,19.53
2022-08-22T08:18:21.972Z,19.60
2022-08-22T08:21:02.083Z,19.68
2022-08-22T08:23:39.673Z,19.61
2022-08-22T08:26:29.135Z,19.40
2022-08-22T08:28:59.455Z,19.46
2022-08-22T08:31:39.828Z,19.64
2022-08-22T08:34:25.938Z,19.72
2022-08-22T08:37:12.807Z,19.69
2022-08-22T08:39:50.597Z,19.61
2022-08-22T08:43:26.847Z,19.57
2022-08-22T08:46:18.037Z,19.59
2022-08-22T08:49:10.678Z,19.66
2022-08-22T08:52:34.350Z,19.68
2022-08-22T08:55:22.017Z,19.59
2022-08-22T08:58:27.457Z,19.63
2022-08-22T09:01:27.495Z,19.69
2022-08-22T09:04:25.278Z,19.69
2022-08-22T09:07:36.696Z,19.71
2022-08-22T09:11:01.714Z,19.77
2022-08-22T09:13:59.191Z,19.84
2022-08-22T09:17:06.814Z,19.91
2022-08-22T09:20:20.100Z,19.95
2022-08-22T09:23:14.972Z,19.92
2022-08-22T09:25:52.324Z,19.96
2022-08-22T09:28:38.791Z,19.94
2022-08-22T09:31:51.426Z,19.92
2022-08-22T09:34:38.191Z,20.01
2022-08-22T09:37:17.953Z,20.03
2022-08-22T09:40:05.714Z,20.10
2022-08-22T09:43:07.096Z,20.17
2022-08-22T09:46:14.402Z,20.14
2022-08-22T09:49:00.460Z,20.15
2022-08-22T09:51:56.414Z,20.22
2022-08-22T09:54:48.614Z,20.25
2022-08-22T09:57:27.680Z,20.19
2022-08-22T10:00:25.659Z,20.17
2022-08-22T10:03:16.057Z,20.08
2022-08-22T10:05:44.306Z,20.02
2022-08-22T10:08:56.568Z,20.02
2022-08-22T10:11:34.209Z,19.98
2022-08-22T10:14:28.023Z,20.02
2022-08-22T10:17:30.563Z,20.05
2022-08-22T10:20:23.189Z,19.99
2022-08-22T10:23:35.056Z,19.87
2022-08-22T10:26:22.626Z,19.83
2022-08-22T10:29:10.610Z,19.68
2022-08-22T10:31:59.529Z,19.53
2022-08-22T10:34:42.932Z,19.50
2022-08-22T10:37:25.059Z,19.44
2022-08-22T10:40:10.841Z,19.41
2022-08-22T10:42:52.321Z,19.36
2022-08-22T10:45:36.312Z,19.27
2022-08-22T10:48:35.685Z,19.31
2022-08-22T10:51:20.010Z,19.26
2022-08-22T10:54:19.970Z,19.19
2022-08-22T10:57:07.398Z,19.29
2022-08-22T10:59:52.369Z,19.36
2022-08-22T11:02:38.526Z,19.28
2022-08-22T11:05:30.298Z,19.23
2022-08-22T11:08:18.438Z,19.26
2022-08-22T11:11:09.898Z,19.31
2022-08-22T11:14:12.378Z,19.34
2022-08-22T11:17:35.530Z,19.41
2022-08-22T11:20:30.376Z,19.41
2022-08-22T11:23:30.740Z,19.44
2022-08-22T11:26:30.148Z,19.41
2022-08-22T11:29:53.957Z,19.43
2022-08-22T11:32:49.683Z,19.42
2022-08-22T11:35:47.256Z,19.51
2022-08-22T11:38:56.281Z,19.51
2022-08-22T11:42:11.863Z,19.47
2022-08-22T11:44:51.874Z,19.54
2022-08-22T11:47:28.255Z,19.65
2022-08-22T11:50:10.737Z,19.52
2022-08-22T11:53:08.565Z,19.63
2022-08-22T11:55:55.026Z,19.66
2022-08-22T11:58:30.853Z,19.69
2022-08-22T12:01:28.153Z,19.76
2022-08-22T12:04:12.920Z,19.81
2022-08-22T12:06:57.911Z,19.80
2022-08-22T12:09:50.555Z,19.84
2022-08-22T12:12:29.518Z,19.84
2022-08-22T12:15:13.323Z,19.82
2022-08-22T12:18:21.290Z,19.75
2022-08-22T12:21:38.487Z,19.73
2022-08-22T12:24:20.869Z,19.71
2022-08-22T12:27:49.705Z,19.66
2022-08-22T12:30:41.976Z,19.71
2022-08-22T12:33:39.496Z,19.75
2022-08-22T12:36:36.286Z,19.59
2022-08-22T12:39:42.766Z,19.59
2022-08-22T12:42:53.170Z,19.62
2022-08-22T12:45:50.706Z,19.61
2022-08-22T12:48:57.824Z,19.50
2022-08-22T12:51:55.782Z,19.40
2022-08-22T12:54:54.769Z,19.44
2022-08-22T12:57:50.504Z,19.46
2022-08-22T13:00:45.157Z,19.41
2022-08-22T13:03:37.257Z,19.37
2022-08-22T13:06:35.754Z,19.28
2022-08-22T13:09:09.873Z,19.22
2022-08-22T13:11:41.451Z,19.09
2022-08-22T13:14:18.559Z,19.07
2022-08-22T13:16:54.693Z,18.96
2022-08-22T13:19:28.952Z,18.91
2022-08-22T13:22:02.241Z,18.77
2022-08-22T13:24:45.928Z,18.81
2022-08-22T13:27:36.485Z,18.80
2022-08-22T13:30:17.511Z,18.80
2022-08-22T13:32:50.065Z,18.80
2022-08-22T13:35:36.133Z,18.65
2022-08-22T13:38:23.794Z,18.65
2022-08-22T13:40:57.516Z,18.56
2022-08-22T13:43:35.616Z,18.34
2022-08-22T13:46:10.953Z,18.27
2022-08-22T13:48:55.727Z,18.16
2022-08-22T13:52:29.797Z,18.13
2022-08-22T13:55:00.700Z,18.03
2022-08-22T13:58:06.896Z,17.98
2022-08-22T14:01:25.468Z,17.83
2022-08-22T14:04:36.297Z,17.69
2022-08-22T14:07:06.265Z,17.61
2022-08-22T14:09:54.348Z,17.64
2022-08-22T14:12:51.117Z,17.63
2022-08-22T14:15:32.223Z,17.63
2022-08-22T14:18:30.344Z,17.67
2022-08-22T14:21:17.311Z,17.63
2022-08-22T14:23:50.453Z,17.71
2022-08-22T14:26:36.628Z,17.79
2022-08-22T14:29:14.317Z,17.79
2022-08-22T14:31:41.918Z,17.75
2022-08-22T14:34:15.850Z,17.72
2022-08-22T14:36:53.677Z,17.66
2022-08-22T14:39:29.710Z,17.69
2022-08-22T14:42:13.808Z,17.67
2022-08-22T14:44:53.183Z,17.67
2022-08-22T14:47:55.227Z,17.67
2022-08-22T14:50:54.407Z,17.72
2022-08-22T14:53:30.981Z,17.69
2022-08-22T14:56:12.267Z,17.71
2022-08-22T14:59:12.263Z,17.71
2022-08-22T15:02:01.661Z,17.73
2022-08-22T15:04:52.505Z,17.79
2022-08-22T15:07:34.896Z,17.83
2022-08-22T15:10:21.616Z,17.88
2022-08-22T15:12:55.744Z,17.93
2022-08-22T15:15:53.397Z,17.92
2022-08-22T15:18:28.853Z,17.92
2022-08-22T15:21:24.107Z,17.92
2022-08-22T15:23:59.452Z,17.94
2022-08-22T15:26:36.266Z,17.91
2022-08-22T15:29:16.258Z,17.90
2022-08-22T15:31:46.460Z,17.90
2022-08-22T15:34:35.688Z,17.89
2022-08-22T15:37:22.643Z,17.88
2022-08-22T15:40:11.528Z,17.86
2022-08-22T15:42:50.668Z,17.87
2022-08-22T15:45:30.298Z,17.86
2022-08-22T15:48:04.898Z,17.81
2022-08-22T15:50:55.478Z,17.77
2022-08-22T15:53:47.686Z,17.75
2022-08-22T15:56:30.222Z,17.71
2022-08-22T15:59:53.406Z,17.67
2022-08-22T16:02:35.570Z,17.69
2022-08-22T16:05:23.598Z,17.67
2022-08-22T16:08:32.817Z,17.71
2022-08-22T16:11:03.386Z,17.69
2022-08-22T16:13:30.235Z,17.65
2022-08-22T16:16:08.108Z,17.69
2022-08-22T16:18:39.239Z,17.68
2022-08-22T16:21:33.375Z,17.74
2022-08-22T16:24:00.940Z,17.73
2022-08-22T16:26:30.816Z,17.74
2022-08-22T16:29:14.745Z,17.71
2022-08-22T16:31:44.925Z,17.63
2022-08-22T16:34:17.909Z,17.66
2022-08-22T16:37:03.255Z,17.62
2022-08-22T16:39:48.246Z,17.58
2022-08-22T16:42:23.974Z,17.53
2022-08-22T16:45:39.692Z,17.47
2022-08-22T16:48:33.956Z,17.45
2022-08-22T16:51:15.580Z,17.41
2022-08-22T16:54:09.073Z,17.37
2022-08-22T16:56:52.143Z,17.31
2022-08-22T16:59:38.407Z,17.23
2022-08-22T17:02:33.726Z,17.13
2022-08-22T17:05:14.591Z,17.04
2022-08-22T17:08:06.788Z,16.97
2022-08-22T17:11:20.910Z,16.91
2022-08-22T17:14:17.692Z,16.89
2022-08-22T17:17:10.304Z,16.84
2022-08-22T17:20:22.463Z,16.86
2022-08-22T17:23:17.551Z,16.82
2022-08-22T17:26:05.673Z,16.79
2022-08-22T17:28:47.835Z,16.79
2022-08-22T17:31:46.334Z,16.75
2022-08-22T17:34:45.390Z,16.71
2022-08-22T17:37:35.938Z,16.66
2022-08-22T17:40:53.931Z,16.60
2022-08-22T17:43:52.250Z,16.56
2022-08-22T17:46:52.847Z,16.52
2022-08-22T17:49:29.266Z,16.52
2022-08-22T17:52:01.612Z,16.56
2022-08-22T17:54:52.519Z,16.56
2022-08-22T17:58:37.902Z,16.60
2022-08-22T18:01:45.991Z,16.56
2022-08-22T18:04:58.394Z,16.54
2022-08-22T18:07:51.889Z,16.62
2022-08-22T18:10:38.781Z,16.68
2022-08-22T18:13:20.098Z,16.66
2022-08-22T18:16:08.145Z,16.70
2022-08-22T18:18:46.465Z,16.71
2022-08-22T18:21:42.884Z,16.76
2022-08-22T18:24:10.471Z,16.77
2022-08-22T18:26:55.394Z,16.78
2022-08-22T18:29:42.462Z,16.75
2022-08-22T18:32:19.524Z,16.75
2022-08-22T18:35:17.483Z,16.79
2022-08-22T18:37:55.089Z,16.80
2022-08-22T18:40:36.341Z,16.81
2022-08-22T18:43:26.635Z,16.81
2022-08-22T18:46:03.646Z,16.85
2022-08-22T18:48:34.318Z,16.84
2022-08-22T18:51:38.208Z,16.85
2022-08-22T18:54:08.312Z,16.82
2022-08-22T18:57:07.075Z,16.86
2022-08-22T18:59:47.807Z,16.86
2022-08-22T19:02:59.493Z,16.87
2022-08-22T19:06:08.669Z,16.83
2022-08-22T19:09:35.484Z,16.87
2022-08-22T19:12:36.346Z,16.94
2022-08-22T19:15:44.311Z,16.92
2022-08-22T19:18:37.100Z,16.92
2022-08-22T19:21:49.661Z,16.91
2022-08-22T19:24:19.657Z,16.89
2022-08-22T19:27:09.001Z,16.94
2022-08-22T19:29:36.089Z,16.91
2022-08-22T19:32:12.783Z,16.92
2022-08-22T19:34:46.865Z,16.94
2022-08-22T19:37:31.753Z,16.95
2022-08-22T19:40:02.658Z,16.98
2022-08-22T19:42:38.092Z,16.93
2022-08-22T19:45:29.007Z,16.88
2022-08-22T19:48:11.757Z,16.88
2022-08-22T19:50:43.369Z,16.92
2022-08-22T19:53:46.070Z,16.86
2022-08-22T19:56:32.664Z,16.90
2022-08-22T19:59:50.759Z,16.91
2022-08-22T20:02:27.453Z,16.88
2022-08-22T20:05:33.203Z,16.85
2022-08-22T20:08:32.628Z,16.86
2022-08-22T20:11:37.830Z,16.81
2022-08-22T20:14:24.976Z,16.83
2022-08-22T20:17:25.395Z,16.84
2022-08-22T20:23:15.452Z,16.83
2022-08-22T20:25:50.691Z,16.81
2022-08-22T20:28:55.460Z,16.83
2022-08-22T20:31:30.427Z,16.80
2022-08-22T20:34:15.838Z,16.84
2022-08-22T20:36:46.956Z,16.82
2022-08-22T20:39:35.912Z,16.79
2022-08-22T20:42:09.798Z,16.75
2022-08-22T20:44:53.389Z,16.74
2022-08-22T20:47:36.167Z,16.70
2022-08-22T20:50:12.055Z,16.70
2022-08-22T20:52:54.295Z,16.69
2022-08-22T20:55:31.394Z,16.69
2022-08-22T20:58:17.966Z,16.66
2022-08-22T21:00:51.135Z,16.64
2022-08-22T21:03:43.833Z,16.62
2022-08-22T21:06:18.788Z,16.63
2022-08-22T21:09:08.109Z,16.62
2022-08-22T21:11:41.065Z,16.60
2022-08-22T21:14:27.569Z,16.57
2022-08-22T21:16:54.656Z,16.56
2022-08-22T21:19:28.907Z,16.55
2022-08-22T21:22:25.203Z,16.54
2022-08-22T21:24:57.477Z,16.51
2022-08-22T21:27:35.059Z,16.52
2022-08-22T21:30:08.484Z,16.55
2022-08-22T21:32:50.059Z,16.54
2022-08-22T21:35:31.847Z,16.58
2022-08-22T21:38:01.593Z,16.58
2022-08-22T21:40:35.840Z,16.61
2022-08-22T21:43:07.524Z,16.64
2022-08-22T21:45:37.341Z,16.63
2022-08-22T21:48:36.445Z,16.63
2022-08-22T21:51:42.054Z,16.63
2022-08-22T21:54:40.002Z,16.61
2022-08-22T21:57:09.895Z,16.61
2022-08-22T21:59:59.662Z,16.61
2022-08-22T22:02:40.234Z,16.56
2022-08-22T22:05:17.624Z,16.58
2022-08-22T22:07:47.530Z,16.61
2022-08-22T22:10:19.232Z,16.63
2022-08-22T22:12:49.618Z,16.63
2022-08-22T22:15:24.762Z,16.66
2022-08-22T22:17:52.078Z,16.62
2022-08-22T22:20:22.220Z,16.65
2022-08-22T22:22:50.631Z,16.66
2022-08-22T22:25:38.853Z,16.64
2022-08-22T22:28:14.763Z,16.68
2022-08-22T22:30:43.357Z,16.68
2022-08-22T22:33:11.184Z,16.67
2022-08-22T22:35:40.599Z,16.62
2022-08-22T22:38:09.108Z,16.61
2022-08-22T22:40:36.550Z,16.62
2022-08-22T22:43:03.956Z,16.62
2022-08-22T22:45:30.976Z,16.63
2022-08-22T22:47:58.128Z,16.58
2022-08-22T22:50:25.485Z,16.57
2022-08-22T22:52:54.049Z,16.56
2022-08-22T22:55:24.675Z,16.55
2022-08-22T22:57:58.575Z,16.53
2022-08-22T23:00:34.620Z,16.54
2022-08-22T23:03:06.418Z,16.57
2022-08-22T23:05:34.251Z,16.55
2022-08-22T23:08:01.800Z,16.56
2022-08-22T23:10:30.828Z,16.60
2022-08-22T23:12:59.029Z,16.58
2022-08-22T23:15:26.743Z,16.61
2022-08-22T23:17:53.758Z,16.60
2022-08-22T23:20:20.808Z,16.62
2022-08-22T23:22:48.245Z,16.66
2022-08-22T23:25:15.532Z,16.69
2022-08-22T23:27:43.106Z,16.70
2022-08-22T23:30:11.209Z,16.67
2022-08-22T23:32:38.658Z,16.72
2022-08-22T23:35:07.628Z,16.70
2022-08-22T23:37:35.277Z,16.61
2022-08-22T23:40:03.353Z,16.60
2022-08-22T23:42:30.497Z,16.62
2022-08-22T23:44:57.311Z,16.61
2022-08-22T23:47:24.310Z,16.65
2022-08-22T23:49:51.279Z,16.63
2022-08-22T23:52:18.114Z,16.63
2022-08-22T23:54:44.973Z,16.63
2022-08-22T23:57:12.807Z,16.63
2022-08-22T23:59:48.059Z,16.62
